sensor_id;sensor_type;location;lat;lon;timestamp;pressure;altitude;pressure_sealevel;temperature;humidity
36254;BME280;22291;52.250;21.228;2022-09-27T00:00:37;99049.72;;;11.39;81.05
36254;BME280;22291;52.250;21.228;2022-09-27T00:03:05;99045.45;;;11.38;80.93
36254;BME280;22291;52.250;21.228;2022-09-27T00:05:31;99046.81;;;11.38;80.94
36254;BME280;22291;52.250;21.228;2022-09-27T00:07:57;99043.09;;;11.36;81.05
36254;BME280;22291;52.250;21.228;2022-09-27T00:10:24;99043.67;;;11.36;81.21
36254;BME280;22291;52.250;21.228;2022-09-27T00:12:50;99040.49;;;11.34;81.29
36254;BME280;22291;52.250;21.228;2022-09-27T00:15:17;99040.29;;;11.33;81.46
36254;BME280;22291;52.250;21.228;2022-09-27T00:17:44;99037.58;;;11.33;81.29
36254;BME280;22291;52.250;21.228;2022-09-27T00:20:11;99036.00;;;11.32;81.25
36254;BME280;22291;52.250;21.228;2022-09-27T00:22:37;99035.45;;;11.32;81.54
36254;BME280;22291;52.250;21.228;2022-09-27T00:25:04;99032.51;;;11.31;81.63
36254;BME280;22291;52.250;21.228;2022-09-27T00:27:32;99032.07;;;11.29;81.69
36254;BME280;22291;52.250;21.228;2022-09-27T00:29:58;99026.42;;;11.28;81.59
36254;BME280;22291;52.250;21.228;2022-09-27T00:32:24;99032.27;;;11.30;81.66
36254;BME280;22291;52.250;21.228;2022-09-27T00:34:50;99031.73;;;11.31;81.78
36254;BME280;22291;52.250;21.228;2022-09-27T00:37:16;99032.17;;;11.33;81.73
36254;BME280;22291;52.250;21.228;2022-09-27T00:39:43;99029.66;;;11.34;81.86
36254;BME280;22291;52.250;21.228;2022-09-27T00:42:10;99022.69;;;11.33;82.01
36254;BME280;22291;52.250;21.228;2022-09-27T00:47:32;99015.69;;;11.32;81.93
36254;BME280;22291;52.250;21.228;2022-09-27T00:53:03;99008.25;;;11.29;82.36
36254;BME280;22291;52.250;21.228;2022-09-27T00:55:35;99011.67;;;11.26;82.63
36254;BME280;22291;52.250;21.228;2022-09-27T00:58:04;99004.81;;;11.22;82.78
36254;BME280;22291;52.250;21.228;2022-09-27T01:00:31;99004.34;;;11.20;82.84
36254;BME280;22291;52.250;21.228;2022-09-27T01:02:58;99002.45;;;11.20;83.07
36254;BME280;22291;52.250;21.228;2022-09-27T01:05:27;99001.64;;;11.20;83.40
36254;BME280;22291;52.250;21.228;2022-09-27T01:07:54;99005.84;;;11.17;83.52
36254;BME280;22291;52.250;21.228;2022-09-27T01:10:27;98999.07;;;11.17;83.90
36254;BME280;22291;52.250;21.228;2022-09-27T01:15:57;99001.73;;;11.24;84.03
36254;BME280;22291;52.250;21.228;2022-09-27T01:29:43;98973.44;;;11.27;84.39
36254;BME280;22291;52.250;21.228;2022-09-27T01:35:10;98979.28;;;11.29;84.61
36254;BME280;22291;52.250;21.228;2022-09-27T01:43:37;98971.26;;;11.33;84.83
36254;BME280;22291;52.250;21.228;2022-09-27T01:46:07;98968.55;;;11.33;84.78
36254;BME280;22291;52.250;21.228;2022-09-27T01:48:42;98973.97;;;11.33;84.85
36254;BME280;22291;52.250;21.228;2022-09-27T01:51:16;98974.40;;;11.35;85.01
36254;BME280;22291;52.250;21.228;2022-09-27T01:53:45;98979.81;;;11.35;85.16
36254;BME280;22291;52.250;21.228;2022-09-27T01:56:19;98983.09;;;11.34;85.43
36254;BME280;22291;52.250;21.228;2022-09-27T01:59:08;98982.09;;;11.33;85.46
36254;BME280;22291;52.250;21.228;2022-09-27T02:01:37;98982.09;;;11.33;85.52
36254;BME280;22291;52.250;21.228;2022-09-27T02:04:07;98970.11;;;11.34;85.57
36254;BME280;22291;52.250;21.228;2022-09-27T02:06:38;98981.17;;;11.35;85.69
36254;BME280;22291;52.250;21.228;2022-09-27T02:09:12;98978.12;;;11.36;85.82
36254;BME280;22291;52.250;21.228;2022-09-27T02:11:46;98981.27;;;11.38;85.84
36254;BME280;22291;52.250;21.228;2022-09-27T02:22:51;98965.25;;;11.39;86.44
36254;BME280;22291;52.250;21.228;2022-09-27T02:25:46;98958.91;;;11.42;86.47
36254;BME280;22291;52.250;21.228;2022-09-27T02:31:06;98959.01;;;11.45;86.69
36254;BME280;22291;52.250;21.228;2022-09-27T02:33:36;98951.31;;;11.47;86.70
36254;BME280;22291;52.250;21.228;2022-09-27T02:36:05;98948.84;;;11.48;86.78
36254;BME280;22291;52.250;21.228;2022-09-27T02:38:32;98947.81;;;11.53;86.75
36254;BME280;22291;52.250;21.228;2022-09-27T02:40:58;98945.09;;;11.53;86.73
36254;BME280;22291;52.250;21.228;2022-09-27T02:43:27;98950.72;;;11.54;86.62
36254;BME280;22291;52.250;21.228;2022-09-27T03:00:41;98958.55;;;11.49;87.01
36254;BME280;22291;52.250;21.228;2022-09-27T03:03:09;98949.33;;;11.44;87.12
36254;BME280;22291;52.250;21.228;2022-09-27T03:05:50;98950.45;;;11.43;87.24
36254;BME280;22291;52.250;21.228;2022-09-27T03:08:19;98941.41;;;11.45;87.65
36254;BME280;22291;52.250;21.228;2022-09-27T03:10:46;98942.56;;;11.44;87.69
36254;BME280;22291;52.250;21.228;2022-09-27T03:13:14;98937.58;;;11.46;87.67
36254;BME280;22291;52.250;21.228;2022-09-27T03:15:40;98935.65;;;11.47;87.67
36254;BME280;22291;52.250;21.228;2022-09-27T03:18:06;98936.31;;;11.50;87.75
36254;BME280;22291;52.250;21.228;2022-09-27T03:20:33;98936.08;;;11.49;87.70
36254;BME280;22291;52.250;21.228;2022-09-27T03:22:59;98942.73;;;11.51;87.71
36254;BME280;22291;52.250;21.228;2022-09-27T03:25:25;98937.52;;;11.52;87.73
36254;BME280;22291;52.250;21.228;2022-09-27T03:27:51;98936.98;;;11.53;87.73
36254;BME280;22291;52.250;21.228;2022-09-27T03:30:17;98935.82;;;11.54;87.97
36254;BME280;22291;52.250;21.228;2022-09-27T03:32:44;98931.56;;;11.53;87.84
36254;BME280;22291;52.250;21.228;2022-09-27T03:35:11;98926.14;;;11.53;87.95
36254;BME280;22291;52.250;21.228;2022-09-27T03:37:39;98921.50;;;11.53;88.09
36254;BME280;22291;52.250;21.228;2022-09-27T03:40:07;98923.20;;;11.52;88.02
36254;BME280;22291;52.250;21.228;2022-09-27T03:42:34;98923.44;;;11.53;88.20
36254;BME280;22291;52.250;21.228;2022-09-27T03:45:00;98926.14;;;11.53;88.12
36254;BME280;22291;52.250;21.228;2022-09-27T03:47:27;98930.75;;;11.52;88.18
36254;BME280;22291;52.250;21.228;2022-09-27T03:49:53;98922.43;;;11.51;88.21
36254;BME280;22291;52.250;21.228;2022-09-27T03:52:20;98918.02;;;11.53;88.17
36254;BME280;22291;52.250;21.228;2022-09-27T03:54:47;98918.80;;;11.53;88.34
36254;BME280;22291;52.250;21.228;2022-09-27T03:57:13;98926.58;;;11.55;88.41
36254;BME280;22291;52.250;21.228;2022-09-27T03:59:40;98918.11;;;11.56;88.41
36254;BME280;22291;52.250;21.228;2022-09-27T04:02:06;98907.62;;;11.55;88.46
36254;BME280;22291;52.250;21.228;2022-09-27T04:04:32;98900.42;;;11.53;88.46
36254;BME280;22291;52.250;21.228;2022-09-27T04:06:58;98892.41;;;11.50;88.63
36254;BME280;22291;52.250;21.228;2022-09-27T04:09:25;98893.77;;;11.50;88.66
36254;BME280;22291;52.250;21.228;2022-09-27T04:11:51;98891.14;;;11.54;88.82
36254;BME280;22291;52.250;21.228;2022-09-27T04:14:17;98889.09;;;11.57;88.93
36254;BME280;22291;52.250;21.228;2022-09-27T04:16:43;98888.17;;;11.59;88.94
36254;BME280;22291;52.250;21.228;2022-09-27T04:19:09;98883.56;;;11.59;88.91
36254;BME280;22291;52.250;21.228;2022-09-27T04:21:35;98896.73;;;11.61;88.63
36254;BME280;22291;52.250;21.228;2022-09-27T04:24:02;98899.44;;;11.61;88.63
36254;BME280;22291;52.250;21.228;2022-09-27T04:26:30;98893.24;;;11.61;88.78
36254;BME280;22291;52.250;21.228;2022-09-27T04:28:55;98888.41;;;11.60;88.71
36254;BME280;22291;52.250;21.228;2022-09-27T04:31:22;98888.83;;;11.62;88.91
36254;BME280;22291;52.250;21.228;2022-09-27T04:33:48;98887.48;;;11.62;88.85
36254;BME280;22291;52.250;21.228;2022-09-27T04:36:18;98883.41;;;11.62;88.93
36254;BME280;22291;52.250;21.228;2022-09-27T04:38:52;98878.14;;;11.59;88.92
36254;BME280;22291;52.250;21.228;2022-09-27T04:41:24;98878.14;;;11.59;88.82
36254;BME280;22291;52.250;21.228;2022-09-27T04:43:54;98872.07;;;11.56;88.78
36254;BME280;22291;52.250;21.228;2022-09-27T04:46:21;98876.13;;;11.56;88.64
36254;BME280;22291;52.250;21.228;2022-09-27T04:48:48;98879.53;;;11.53;88.63
36254;BME280;22291;52.250;21.228;2022-09-27T04:51:16;98882.16;;;11.50;88.72
36254;BME280;22291;52.250;21.228;2022-09-27T04:53:43;98881.84;;;11.45;88.74
36254;BME280;22291;52.250;21.228;2022-09-27T04:56:11;98883.00;;;11.44;89.02
36254;BME280;22291;52.250;21.228;2022-09-27T04:58:38;98894.86;;;11.39;89.15
36254;BME280;22291;52.250;21.228;2022-09-27T05:01:06;98893.53;;;11.33;89.17
36254;BME280;22291;52.250;21.228;2022-09-27T05:03:34;98891.86;;;11.29;89.39
36254;BME280;22291;52.250;21.228;2022-09-27T05:06:00;98888.63;;;11.23;89.70
36254;BME280;22291;52.250;21.228;2022-09-27T05:08:28;98893.95;;;11.19;89.74
36254;BME280;22291;52.250;21.228;2022-09-27T05:10:54;98892.28;;;11.15;90.12
36254;BME280;22291;52.250;21.228;2022-09-27T05:13:21;98894.35;;;11.12;90.07
36254;BME280;22291;52.250;21.228;2022-09-27T05:15:47;98888.27;;;11.09;90.42
36254;BME280;22291;52.250;21.228;2022-09-27T05:18:13;98896.94;;;11.08;90.51
36254;BME280;22291;52.250;21.228;2022-09-27T05:20:40;98892.24;;;11.05;90.62
36254;BME280;22291;52.250;21.228;2022-09-27T05:23:07;98891.58;;;11.02;90.73
36254;BME280;22291;52.250;21.228;2022-09-27T05:25:33;98894.97;;;10.99;90.76
36254;BME280;22291;52.250;21.228;2022-09-27T05:28:01;98897.23;;;10.97;90.94
36254;BME280;22291;52.250;21.228;2022-09-27T05:30:28;98905.12;;;10.96;91.58
36254;BME280;22291;52.250;21.228;2022-09-27T05:32:54;98899.84;;;10.93;91.46
36254;BME280;22291;52.250;21.228;2022-09-27T05:35:21;98893.42;;;10.92;91.70
36254;BME280;22291;52.250;21.228;2022-09-27T05:37:58;98896.81;;;10.89;91.63
36254;BME280;22291;52.250;21.228;2022-09-27T05:40:26;98894.45;;;10.87;92.06
36254;BME280;22291;52.250;21.228;2022-09-27T05:42:54;98891.75;;;10.87;91.81
36254;BME280;22291;52.250;21.228;2022-09-27T05:45:23;98893.19;;;10.91;92.12
36254;BME280;22291;52.250;21.228;2022-09-27T05:47:55;98895.33;;;10.91;92.19
36254;BME280;22291;52.250;21.228;2022-09-27T05:50:24;98892.62;;;10.91;92.17
36254;BME280;22291;52.250;21.228;2022-09-27T05:52:51;98889.02;;;10.93;92.35
36254;BME280;22291;52.250;21.228;2022-09-27T05:55:19;98888.31;;;10.96;92.36
36254;BME280;22291;52.250;21.228;2022-09-27T05:58:00;98887.08;;;11.00;92.73
36254;BME280;22291;52.250;21.228;2022-09-27T06:00:28;98883.57;;;10.99;92.29
36254;BME280;22291;52.250;21.228;2022-09-27T06:03:00;98885.36;;;11.01;92.70
36254;BME280;22291;52.250;21.228;2022-09-27T06:05:27;98887.72;;;11.03;92.65
36254;BME280;22291;52.250;21.228;2022-09-27T06:08:03;98881.41;;;11.05;92.89
36254;BME280;22291;52.250;21.228;2022-09-27T06:10:32;98883.64;;;11.09;92.82
36254;BME280;22291;52.250;21.228;2022-09-27T06:13:00;98884.99;;;11.09;92.98
36254;BME280;22291;52.250;21.228;2022-09-27T06:15:28;98882.95;;;11.12;93.23
36254;BME280;22291;52.250;21.228;2022-09-27T06:17:56;98885.52;;;11.15;93.17
36254;BME280;22291;52.250;21.228;2022-09-27T06:20:24;98878.41;;;11.16;93.24
36254;BME280;22291;52.250;21.228;2022-09-27T06:22:51;98883.13;;;11.19;93.44
36254;BME280;22291;52.250;21.228;2022-09-27T06:25:18;98881.20;;;11.20;93.37
36254;BME280;22291;52.250;21.228;2022-09-27T06:27:45;98875.45;;;11.21;93.37
36254;BME280;22291;52.250;21.228;2022-09-27T06:30:11;98886.82;;;11.27;93.56
36254;BME280;22291;52.250;21.228;2022-09-27T06:32:37;98886.25;;;11.28;93.37
36254;BME280;22291;52.250;21.228;2022-09-27T06:35:04;98883.97;;;11.30;93.51
36254;BME280;22291;52.250;21.228;2022-09-27T06:37:31;98886.42;;;11.35;93.47
36254;BME280;22291;52.250;21.228;2022-09-27T06:39:58;98884.14;;;11.37;93.32
36254;BME280;22291;52.250;21.228;2022-09-27T06:42:26;98882.67;;;11.39;93.21
36254;BME280;22291;52.250;21.228;2022-09-27T06:44:52;98883.34;;;11.43;93.58
36254;BME280;22291;52.250;21.228;2022-09-27T06:47:19;98878.94;;;11.44;93.29
36254;BME280;22291;52.250;21.228;2022-09-27T06:49:45;98889.59;;;11.53;93.69
36254;BME280;22291;52.250;21.228;2022-09-27T06:52:11;98884.26;;;11.56;93.70
36254;BME280;22291;52.250;21.228;2022-09-27T06:54:37;98885.12;;;11.61;93.34
36254;BME280;22291;52.250;21.228;2022-09-27T06:57:04;98876.64;;;11.62;93.04
36254;BME280;22291;52.250;21.228;2022-09-27T06:59:30;98883.30;;;11.65;93.02
36254;BME280;22291;52.250;21.228;2022-09-27T07:02:15;98887.64;;;11.69;93.09
36254;BME280;22291;52.250;21.228;2022-09-27T07:04:41;98898.56;;;11.73;92.81
36254;BME280;22291;52.250;21.228;2022-09-27T07:07:08;98902.63;;;11.73;92.49
36254;BME280;22291;52.250;21.228;2022-09-27T07:09:35;98906.26;;;11.71;92.80
36254;BME280;22291;52.250;21.228;2022-09-27T07:12:03;98900.72;;;11.73;92.67
36254;BME280;22291;52.250;21.228;2022-09-27T07:14:30;98887.53;;;11.72;92.40
36254;BME280;22291;52.250;21.228;2022-09-27T07:16:58;98886.60;;;11.74;92.73
36254;BME280;22291;52.250;21.228;2022-09-27T07:19:24;98878.78;;;11.78;92.97
36254;BME280;22291;52.250;21.228;2022-09-27T07:21:50;98871.95;;;11.85;93.25
36254;BME280;22291;52.250;21.228;2022-09-27T07:24:17;98870.80;;;11.92;93.44
36254;BME280;22291;52.250;21.228;2022-09-27T07:26:43;98870.66;;;11.94;93.11
36254;BME280;22291;52.250;21.228;2022-09-27T07:29:09;98868.72;;;11.95;92.64
36254;BME280;22291;52.250;21.228;2022-09-27T07:31:36;98876.23;;;12.02;93.12
36254;BME280;22291;52.250;21.228;2022-09-27T07:34:02;98884.44;;;12.05;92.62
36254;BME280;22291;52.250;21.228;2022-09-27T07:36:28;98888.61;;;12.09;92.75
36254;BME280;22291;52.250;21.228;2022-09-27T07:38:58;98886.41;;;12.14;92.75
36254;BME280;22291;52.250;21.228;2022-09-27T07:41:24;98897.17;;;12.21;92.88
36254;BME280;22291;52.250;21.228;2022-09-27T07:43:50;98900.53;;;12.24;92.39
36254;BME280;22291;52.250;21.228;2022-09-27T07:46:16;98899.88;;;12.21;91.71
36254;BME280;22291;52.250;21.228;2022-09-27T07:48:42;98908.81;;;12.21;91.93
36254;BME280;22291;52.250;21.228;2022-09-27T07:51:10;98915.02;;;12.22;91.61
36254;BME280;22291;52.250;21.228;2022-09-27T07:53:37;98905.10;;;12.20;91.36
36254;BME280;22291;52.250;21.228;2022-09-27T07:56:03;98901.38;;;12.18;91.42
36254;BME280;22291;52.250;21.228;2022-09-27T07:58:30;98905.18;;;12.23;91.95
36254;BME280;22291;52.250;21.228;2022-09-27T08:00:58;98906.30;;;12.22;91.71
36254;BME280;22291;52.250;21.228;2022-09-27T08:03:25;98904.75;;;12.21;91.32
36254;BME280;22291;52.250;21.228;2022-09-27T08:05:51;98897.39;;;12.22;91.60
36254;BME280;22291;52.250;21.228;2022-09-27T08:08:17;98903.52;;;12.19;91.35
36254;BME280;22291;52.250;21.228;2022-09-27T08:10:43;98909.82;;;12.23;91.88
36254;BME280;22291;52.250;21.228;2022-09-27T08:13:12;98910.32;;;12.28;92.02
36254;BME280;22291;52.250;21.228;2022-09-27T08:15:39;98899.91;;;12.30;91.68
36254;BME280;22291;52.250;21.228;2022-09-27T08:18:06;98896.48;;;12.33;91.87
36254;BME280;22291;52.250;21.228;2022-09-27T08:20:36;98897.92;;;12.37;91.83
36254;BME280;22291;52.250;21.228;2022-09-27T08:23:02;98887.95;;;12.41;91.89
36254;BME280;22291;52.250;21.228;2022-09-27T08:25:29;98874.45;;;12.55;92.24
36254;BME280;22291;52.250;21.228;2022-09-27T08:27:57;98871.53;;;12.73;93.68
36254;BME280;22291;52.250;21.228;2022-09-27T08:30:25;98863.64;;;13.07;94.55
36254;BME280;22291;52.250;21.228;2022-09-27T08:32:55;98864.69;;;13.32;92.29
36254;BME280;22291;52.250;21.228;2022-09-27T08:35:22;98874.59;;;13.43;91.97
36254;BME280;22291;52.250;21.228;2022-09-27T08:37:58;98882.02;;;13.60;91.79
36254;BME280;22291;52.250;21.228;2022-09-27T08:40:23;98879.86;;;13.69;90.41
36254;BME280;22291;52.250;21.228;2022-09-27T08:48:58;98882.32;;;13.78;85.93
36254;BME280;22291;52.250;21.228;2022-09-27T08:51:32;98884.45;;;13.78;87.20
36254;BME280;22291;52.250;21.228;2022-09-27T08:54:04;98882.64;;;13.86;86.38
36254;BME280;22291;52.250;21.228;2022-09-27T08:56:31;98877.14;;;13.96;87.02
36254;BME280;22291;52.250;21.228;2022-09-27T08:59:01;98882.39;;;14.08;87.18
36254;BME280;22291;52.250;21.228;2022-09-27T09:01:39;98894.35;;;14.04;85.65
36254;BME280;22291;52.250;21.228;2022-09-27T09:04:08;98900.88;;;13.99;85.18
36254;BME280;22291;52.250;21.228;2022-09-27T09:06:46;98911.65;;;13.92;84.87
36254;BME280;22291;52.250;21.228;2022-09-27T09:20:57;98897.84;;;13.91;85.18
36254;BME280;22291;52.250;21.228;2022-09-27T09:23:41;98900.24;;;13.96;85.54
36254;BME280;22291;52.250;21.228;2022-09-27T09:31:58;98892.77;;;14.16;84.21
36254;BME280;22291;52.250;21.228;2022-09-27T09:34:38;98899.74;;;14.13;83.68
36254;BME280;22291;52.250;21.228;2022-09-27T09:39:53;98886.47;;;14.08;83.09
36254;BME280;22291;52.250;21.228;2022-09-27T09:47:56;98875.59;;;13.95;82.90
36254;BME280;22291;52.250;21.228;2022-09-27T09:50:30;98879.30;;;13.96;82.90
36254;BME280;22291;52.250;21.228;2022-09-27T09:53:13;98878.13;;;13.97;82.73
36254;BME280;22291;52.250;21.228;2022-09-27T09:56:04;98872.23;;;13.92;82.72
36254;BME280;22291;52.250;21.228;2022-09-27T09:58:43;98875.73;;;13.92;83.05
36254;BME280;22291;52.250;21.228;2022-09-27T10:03:55;98876.45;;;13.89;82.88
36254;BME280;22291;52.250;21.228;2022-09-27T10:06:23;98870.47;;;13.90;83.23
36254;BME280;22291;52.250;21.228;2022-09-27T10:08:50;98871.52;;;13.95;83.38
36254;BME280;22291;52.250;21.228;2022-09-27T10:11:24;98864.55;;;13.97;83.48
36254;BME280;22291;52.250;21.228;2022-09-27T10:13:53;98855.34;;;14.06;84.49
36254;BME280;22291;52.250;21.228;2022-09-27T10:16:23;98854.43;;;14.25;84.93
36254;BME280;22291;52.250;21.228;2022-09-27T10:18:54;98855.26;;;14.42;84.20
36254;BME280;22291;52.250;21.228;2022-09-27T10:21:28;98851.70;;;14.55;84.28
36254;BME280;22291;52.250;21.228;2022-09-27T10:26:38;98867.95;;;14.78;83.14
36254;BME280;22291;52.250;21.228;2022-09-27T10:31:58;98859.27;;;14.86;82.34
36254;BME280;22291;52.250;21.228;2022-09-27T10:34:40;98855.23;;;14.89;81.80
36254;BME280;22291;52.250;21.228;2022-09-27T10:37:19;98855.23;;;14.89;80.92
36254;BME280;22291;52.250;21.228;2022-09-27T10:39:49;98855.27;;;14.93;81.18
36254;BME280;22291;52.250;21.228;2022-09-27T10:42:35;98847.56;;;14.99;80.31
36254;BME280;22291;52.250;21.228;2022-09-27T10:45:26;98837.75;;;14.90;79.98
36254;BME280;22291;52.250;21.228;2022-09-27T10:47:54;98835.28;;;14.95;80.28
36254;BME280;22291;52.250;21.228;2022-09-27T10:50:23;98826.83;;;15.07;80.96
36254;BME280;22291;52.250;21.228;2022-09-27T10:53:14;98826.58;;;15.23;80.07
36254;BME280;22291;52.250;21.228;2022-09-27T10:55:49;98828.42;;;15.33;79.15
36254;BME280;22291;52.250;21.228;2022-09-27T10:58:31;98818.75;;;15.42;78.63
36254;BME280;22291;52.250;21.228;2022-09-27T11:01:04;98821.91;;;15.44;77.72
36254;BME280;22291;52.250;21.228;2022-09-27T11:03:35;98823.03;;;15.40;77.29
36254;BME280;22291;52.250;21.228;2022-09-27T11:06:27;98822.66;;;15.41;77.23
36254;BME280;22291;52.250;21.228;2022-09-27T11:09:08;98829.44;;;15.38;76.54
36254;BME280;22291;52.250;21.228;2022-09-27T11:11:36;98828.61;;;15.34;76.27
36254;BME280;22291;52.250;21.228;2022-09-27T11:14:05;98832.88;;;15.31;75.58
36254;BME280;22291;52.250;21.228;2022-09-27T11:16:49;98832.95;;;15.18;75.61
36254;BME280;22291;52.250;21.228;2022-09-27T11:19:47;98829.34;;;15.06;76.05
36254;BME280;22291;52.250;21.228;2022-09-27T11:31:44;98804.14;;;15.17;76.28
36254;BME280;22291;52.250;21.228;2022-09-27T11:40:12;98793.97;;;15.58;75.99
36254;BME280;22291;52.250;21.228;2022-09-27T11:46:22;98788.14;;;15.87;74.50
36254;BME280;22291;52.250;21.228;2022-09-27T12:00:21;98789.11;;;15.85;73.09
36254;BME280;22291;52.250;21.228;2022-09-27T12:03:12;98791.52;;;15.70;72.79
36254;BME280;22291;52.250;21.228;2022-09-27T12:09:00;98799.75;;;15.49;72.95
36254;BME280;22291;52.250;21.228;2022-09-27T12:11:49;98796.72;;;15.34;72.63
36254;BME280;22291;52.250;21.228;2022-09-27T12:17:13;98796.64;;;15.03;73.07
36254;BME280;22291;52.250;21.228;2022-09-27T12:19:53;98789.02;;;14.99;73.71
36254;BME280;22291;52.250;21.228;2022-09-27T12:22:33;98792.09;;;14.93;73.71
36254;BME280;22291;52.250;21.228;2022-09-27T12:25:03;98784.76;;;14.81;73.64
36254;BME280;22291;52.250;21.228;2022-09-27T12:27:36;98789.92;;;14.72;74.05
36254;BME280;22291;52.250;21.228;2022-09-27T12:30:12;98784.08;;;14.70;74.48
36254;BME280;22291;52.250;21.228;2022-09-27T12:33:03;98776.61;;;14.64;74.74
36254;BME280;22291;52.250;21.228;2022-09-27T12:35:52;98778.16;;;14.61;74.61
36254;BME280;22291;52.250;21.228;2022-09-27T12:41:10;98774.85;;;14.62;74.57
36254;BME280;22291;52.250;21.228;2022-09-27T12:43:43;98769.13;;;14.57;74.67
36254;BME280;22291;52.250;21.228;2022-09-27T12:49:58;98769.78;;;14.60;74.58
36254;BME280;22291;52.250;21.228;2022-09-27T12:52:42;98764.19;;;14.63;75.63
36254;BME280;22291;52.250;21.228;2022-09-27T13:09:35;98743.52;;;14.99;74.92
36254;BME280;22291;52.250;21.228;2022-09-27T13:12:14;98745.89;;;15.04;74.58
36254;BME280;22291;52.250;21.228;2022-09-27T13:14:58;98745.73;;;15.07;74.44
36254;BME280;22291;52.250;21.228;2022-09-27T13:20:36;98745.73;;;15.35;74.24
36254;BME280;22291;52.250;21.228;2022-09-27T13:25:56;98734.56;;;15.54;73.72
36254;BME280;22291;52.250;21.228;2022-09-27T13:31:06;98732.11;;;15.66;73.30
36254;BME280;22291;52.250;21.228;2022-09-27T13:33:47;98720.06;;;15.71;72.53
36254;BME280;22291;52.250;21.228;2022-09-27T13:47:14;98713.31;;;16.31;72.34
36254;BME280;22291;52.250;21.228;2022-09-27T13:49:44;98712.17;;;16.39;71.73
36254;BME280;22291;52.250;21.228;2022-09-27T13:55:00;98703.59;;;16.33;71.00
36254;BME280;22291;52.250;21.228;2022-09-27T13:57:59;98704.79;;;16.43;70.85
36254;BME280;22291;52.250;21.228;2022-09-27T14:00:26;98702.45;;;16.45;70.45
36254;BME280;22291;52.250;21.228;2022-09-27T14:08:45;98693.45;;;16.41;69.51
36254;BME280;22291;52.250;21.228;2022-09-27T14:11:38;98689.35;;;16.30;69.62
36254;BME280;22291;52.250;21.228;2022-09-27T14:14:16;98689.95;;;16.33;70.14
36254;BME280;22291;52.250;21.228;2022-09-27T14:16:42;98685.64;;;16.32;69.94
36254;BME280;22291;52.250;21.228;2022-09-27T14:19:18;98686.41;;;16.29;69.81
36254;BME280;22291;52.250;21.228;2022-09-27T14:21:46;98686.41;;;16.25;69.88
36254;BME280;22291;52.250;21.228;2022-09-27T14:27:18;98680.78;;;16.28;69.77
36254;BME280;22291;52.250;21.228;2022-09-27T14:29:49;98681.72;;;16.22;69.31
36254;BME280;22291;52.250;21.228;2022-09-27T14:32:20;98684.64;;;16.16;69.45
36254;BME280;22291;52.250;21.228;2022-09-27T14:35:13;98681.52;;;16.11;69.39
36254;BME280;22291;52.250;21.228;2022-09-27T14:38:02;98682.84;;;16.03;69.51
36254;BME280;22291;52.250;21.228;2022-09-27T14:40:33;98680.09;;;15.96;70.03
36254;BME280;22291;52.250;21.228;2022-09-27T14:43:17;98678.51;;;15.92;70.00
36254;BME280;22291;52.250;21.228;2022-09-27T14:45:47;98675.60;;;15.91;70.23
36254;BME280;22291;52.250;21.228;2022-09-27T14:48:22;98679.30;;;15.89;70.42
36254;BME280;22291;52.250;21.228;2022-09-27T14:50:59;98675.77;;;15.84;70.47
36254;BME280;22291;52.250;21.228;2022-09-27T14:53:31;98671.45;;;15.80;70.31
36254;BME280;22291;52.250;21.228;2022-09-27T14:56:00;98664.00;;;15.73;70.59
36254;BME280;22291;52.250;21.228;2022-09-27T14:58:31;98665.55;;;15.71;70.69
36254;BME280;22291;52.250;21.228;2022-09-27T15:01:00;98671.38;;;15.65;70.35
36254;BME280;22291;52.250;21.228;2022-09-27T15:03:31;98671.52;;;15.56;70.16
36254;BME280;22291;52.250;21.228;2022-09-27T15:06:00;98667.98;;;15.48;70.39
36254;BME280;22291;52.250;21.228;2022-09-27T15:08:28;98669.28;;;15.41;70.30
36254;BME280;22291;52.250;21.228;2022-09-27T15:11:03;98674.14;;;15.34;70.44
36254;BME280;22291;52.250;21.228;2022-09-27T15:13:33;98672.33;;;15.28;70.46
36254;BME280;22291;52.250;21.228;2022-09-27T15:16:12;98675.81;;;15.25;70.77
36254;BME280;22291;52.250;21.228;2022-09-27T15:18:46;98681.83;;;15.21;70.76
36254;BME280;22291;52.250;21.228;2022-09-27T15:21:35;98671.08;;;15.15;70.94
36254;BME280;22291;52.250;21.228;2022-09-27T15:24:04;98682.70;;;15.08;70.94
36254;BME280;22291;52.250;21.228;2022-09-27T15:26:36;98677.61;;;15.03;71.09
36254;BME280;22291;52.250;21.228;2022-09-27T15:29:05;98682.25;;;14.99;71.30
36254;BME280;22291;52.250;21.228;2022-09-27T15:31:35;98679.11;;;14.93;71.23
36254;BME280;22291;52.250;21.228;2022-09-27T15:34:02;98678.88;;;14.89;71.37
36254;BME280;22291;52.250;21.228;2022-09-27T15:39:30;98677.27;;;14.84;71.78
36254;BME280;22291;52.250;21.228;2022-09-27T15:44:51;98669.48;;;14.83;71.96
36254;BME280;22291;52.250;21.228;2022-09-27T15:52:54;98664.23;;;14.80;71.90
36254;BME280;22291;52.250;21.228;2022-09-27T15:55:25;98675.48;;;14.79;72.03
36254;BME280;22291;52.250;21.228;2022-09-27T15:57:58;98667.89;;;14.74;71.96
36254;BME280;22291;52.250;21.228;2022-09-27T16:00:27;98665.11;;;14.71;71.89
36254;BME280;22291;52.250;21.228;2022-09-27T16:02:54;98660.97;;;14.64;71.95
36254;BME280;22291;52.250;21.228;2022-09-27T16:05:21;98659.80;;;14.61;72.01
36254;BME280;22291;52.250;21.228;2022-09-27T16:07:49;98659.95;;;14.59;72.11
36254;BME280;22291;52.250;21.228;2022-09-27T16:10:19;98658.94;;;14.57;72.15
36254;BME280;22291;52.250;21.228;2022-09-27T16:12:47;98658.91;;;14.53;72.39
36254;BME280;22291;52.250;21.228;2022-09-27T16:15:15;98659.66;;;14.50;72.26
36254;BME280;22291;52.250;21.228;2022-09-27T16:17:41;98654.37;;;14.44;72.15
36254;BME280;22291;52.250;21.228;2022-09-27T16:20:20;98657.03;;;14.37;72.04
36254;BME280;22291;52.250;21.228;2022-09-27T16:22:50;98658.30;;;14.30;72.13